STATION HISTORICAL DATA FROM WUNDERGROUND.COM FOR HIGH PARK VILLAGE,TORONTO,ON,CANADA
 
Daily Summary for July 22, 2018 Units:  Metric    English   Both
Next Day »
Daily Weekly Monthly Yearly Custom
  Current: High: Low: Average:
Temperature: 18.7 °C 22.8 °C 18.4 °C 20.4 °C
Dew Point: 16.1 °C 16.4 °C 14.3 °C 15.7 °C
Humidity: 85% 85% 60% 75%
Wind Speed: 1.9km/h 7.4km/h 0km/h 1.1km/h
Wind Gust: 0.8km/h 2.4km/h - -
WindNE - - West
Pressure: 1008 hPa 1013.1 hPa 1008 hPa -
Precipitation: 3.05 mm      
Historical Graphs
 
 
Tabular Data for July 22, 2018
Time Temperature Dew Point Pressure Wind Wind Speed Wind Gust Humidity Rainfall Rate (Hourly) Solar Conditions
00:04 22.8 °C 14.9 °C 1012.8 hPa Calm   0.2 km/h 61% 0 mm 0.00 W/m2
00:09 22.7 °C 14.8 °C 1012.8 hPa WSW 1.9 km/h 0.3 km/h 61% 0 mm 0.00 W/m2
00:14 22.6 °C 14.4 °C 1012.8 hPa SSW 3.7 km/h 1 km/h 60% 0 mm 0.00 W/m2
00:19 22.5 °C 14.4 °C 1012.8 hPa WSW 5.6 km/h 1.3 km/h 60% 0 mm 0.00 W/m2
00:24 22.4 °C 14.3 °C 1012.8 hPa Calm     60% 0 mm 0.00 W/m2
00:29 22.4 °C 14.5 °C 1012.8 hPa WSW 1.9 km/h 0.3 km/h 61% 0 mm 0.00 W/m2
00:34 22.4 °C 14.8 °C 1012.8 hPa SW 1.9 km/h   62% 0 mm 0.00 W/m2
00:39 22.3 °C 14.9 °C 1012.8 hPa SW 3.7 km/h 1.1 km/h 63% 0 mm 0.00 W/m2
00:44 22.2 °C 14.9 °C 1012.8 hPa SSW 1.6 km/h 1.1 km/h 63% 0 mm 0.00 W/m2
00:49 22.2 °C 15.1 °C 1013.1 hPa SW 1.6 km/h 0.3 km/h 64% 0 mm 0.00 W/m2
00:54 22.1 °C 15.2 °C 1013.1 hPa NW 1.9 km/h   65% 0 mm 0.00 W/m2
00:59 21.9 °C 15.1 °C 1013.1 hPa WSW 1.9 km/h 0.3 km/h 65% 0 mm 0.00 W/m2
01:04 21.7 °C 15.1 °C 1013.1 hPa SSW 1.9 km/h 0.2 km/h 66% 0 mm 0.00 W/m2
01:09 21.6 °C 15.2 °C 1013.1 hPa Calm     67% 0 mm 0.00 W/m2
01:14 21.6 °C 15.4 °C 1013.1 hPa Calm     68% 0 mm 0.00 W/m2
01:19 21.4 °C 15.3 °C 1012.8 hPa Calm     68% 0 mm 0.00 W/m2
01:24 21.4 °C 15.6 °C 1012.8 hPa Calm     69% 0 mm 0.00 W/m2
01:29 21.4 °C 15.5 °C 1012.8 hPa Calm     69% 0 mm 0.00 W/m2
01:34 21.4 °C 15.7 °C 1012.8 hPa Calm     70% 0 mm 0.00 W/m2
01:39 21.3 °C 15.7 °C 1012.8 hPa Calm     70% 0 mm 0.00 W/m2
01:44 21.3 °C 15.7 °C 1012.8 hPa Calm     70% 0 mm 0.00 W/m2
01:49 21.3 °C 15.9 °C 1012.8 hPa Calm     71% 0 mm 0.00 W/m2
01:54 21.3 °C 15.9 °C 1012.8 hPa Calm   0.5 km/h 71% 0 mm 0.00 W/m2
01:59 21.3 °C 15.9 °C 1012.4 hPa Calm     71% 0 mm 0.00 W/m2
02:04 21.3 °C 15.9 °C 1012.4 hPa Calm     71% 0 mm 0.00 W/m2
02:09 21.3 °C 15.8 °C 1012.4 hPa Calm     71% 0 mm 0.00 W/m2
02:14 21.3 °C 15.6 °C 1012.4 hPa Calm   0.2 km/h 70% 0 mm 0.00 W/m2
02:19 21.3 °C 15.6 °C 1012.1 hPa Calm     70% 0 mm 0.00 W/m2
02:24 21.3 °C 15.7 °C 1012.1 hPa Calm     70% 0 mm 0.00 W/m2
02:29 21.4 °C 15.7 °C 1012.1 hPa Calm     70% 0 mm 0.00 W/m2
02:34 21.4 °C 15.8 °C 1011.7 hPa SSW 1.9 km/h   70% 0 mm 0.00 W/m2
02:39 21.4 °C 15.8 °C 1011.7 hPa Calm     70% 0 mm 0.00 W/m2
02:44 21.4 °C 15.8 °C 1011.4 hPa Calm     70% 0 mm 0.00 W/m2
02:49 21.4 °C 15.8 °C 1011.4 hPa Calm     70% 0 mm 0.00 W/m2
02:54 21.4 °C 15.8 °C 1011.4 hPa Calm     70% 0 mm 0.00 W/m2
02:59 21.4 °C 16 °C 1011.4 hPa Calm     71% 0 mm 0.00 W/m2
03:04 21.4 °C 15.9 °C 1011.1 hPa Calm     71% 0 mm 0.00 W/m2
03:09 21.3 °C 15.8 °C 1011.1 hPa SW 1.9 km/h   71% 0 mm 0.00 W/m2
03:14 21.2 °C 15.8 °C 1011.1 hPa Calm     71% 0 mm 0.00 W/m2
03:19 21.2 °C 15.8 °C 1011.4 hPa Calm     71% 0 mm 0.00 W/m2
03:24 21.2 °C 16 °C 1011.4 hPa Calm     72% 0 mm 0.00 W/m2
03:29 21.3 °C 16.1 °C 1011.4 hPa Calm     72% 0 mm 0.00 W/m2
03:34 21.3 °C 16.1 °C 1011.4 hPa Calm     72% 0 mm 0.00 W/m2
03:39 21.3 °C 16.1 °C 1011.4 hPa Calm     72% 0 mm 0.00 W/m2
03:44 21.4 °C 16.2 °C 1011.4 hPa Calm     72% 0 mm 0.00 W/m2
03:49 21.4 °C 16.2 °C 1011.4 hPa Calm     72% 0 mm 0.00 W/m2
03:54 21.4 °C 16.2 °C 1011.4 hPa Calm     72% 0 mm 0.00 W/m2
03:59 21.4 °C 16.2 °C 1011.4 hPa Calm     72% 0 mm 0.00 W/m2
04:04 21.4 °C 16.2 °C 1011.4 hPa Calm     72% 0 mm 0.00 W/m2
04:09 21.4 °C 16.4 °C 1011.1 hPa Calm     73% 0 mm 0.00 W/m2
04:14 21.4 °C 16.4 °C 1011.1 hPa Calm     73% 0 mm 0.00 W/m2
04:19 21.3 °C 16.3 °C 1011.1 hPa Calm   0.2 km/h 73% 0 mm 0.00 W/m2
04:24 21.2 °C 16.2 °C 1011.1 hPa Calm     73% 0 mm 0.00 W/m2
04:29 21.1 °C 16.1 °C 1010.7 hPa Calm   0.3 km/h 73% 0 mm 0.00 W/m2
04:34 20.9 °C 15.9 °C 1010.7 hPa Calm   0.2 km/h 73% 0 mm 0.00 W/m2
04:39 20.7 °C 15.7 °C 1010.4 hPa Calm     73% 0 mm 0.00 W/m2
04:44 20.5 °C 15.7 °C 1010.4 hPa NW 1.9 km/h 0.2 km/h 74% 0 mm 0.00 W/m2
04:49 20.1 °C 15.3 °C 1010.4 hPa NW 1.9 km/h 0.6 km/h 74% 0 mm 0.00 W/m2
04:54 19.8 °C 15.2 °C 1010.4 hPa NNW 1.9 km/h 1.4 km/h 75% 0 mm 0.00 W/m2
04:59 19.6 °C 15.2 °C 1010.4 hPa Calm     76% 0 mm 0.00 W/m2
05:04 19.4 °C 15.3 °C 1010.4 hPa West 1.9 km/h 0.2 km/h 77% 0 mm 0.00 W/m2
05:09 19.3 °C 15.2 °C 1010 hPa Calm   0.2 km/h 77% 0 mm 0.00 W/m2
05:14 19.2 °C 15.3 °C 1010 hPa WNW 1.9 km/h 0.2 km/h 78% 0 mm 0.00 W/m2
05:19 19.1 °C 15.2 °C 1010 hPa Calm   0.2 km/h 78% 0 mm 0.00 W/m2
05:24 18.9 °C 15.2 °C 1010 hPa WNW 1.9 km/h   79% 0 mm 0.00 W/m2
05:29 18.9 °C 15.4 °C 1010 hPa Calm     80% 0 mm 0.00 W/m2
05:34 18.8 °C 15.3 °C 1010 hPa Calm     80% 0 mm 0.00 W/m2
05:39 18.9 °C 15.6 °C 1010 hPa Calm     81% 0 mm 0.00 W/m2
05:44 18.9 °C 15.6 °C 1010 hPa Calm     81% 0 mm 0.00 W/m2
05:49 18.9 °C 15.6 °C 1010 hPa NW 3.7 km/h 1.4 km/h 81% 0 mm 0.00 W/m2
05:54 18.9 °C 15.6 °C 1009.7 hPa NNW 3.2 km/h 1.1 km/h 81% 0 mm 0.00 W/m2
05:59 18.7 °C 15.4 °C 1009.7 hPa NNW 3.7 km/h 1.6 km/h 81% 0 mm 0.00 W/m2
06:04 18.5 °C 15.4 °C 1009 hPa NW 7.4 km/h 2.3 km/h 82% 0 mm 0.00 W/m2
06:09 18.4 °C 15.3 °C 1009.7 hPa Calm     82% 0 mm 0.00 W/m2
06:14 18.4 °C 15.4 °C 1009.4 hPa NW 1.9 km/h 0.2 km/h 83% 0 mm 0.00 W/m2
06:19 18.4 °C 15.5 °C 1009.4 hPa NW 1.9 km/h   83% 0 mm 0.00 W/m2
06:24 18.5 °C 15.6 °C 1009 hPa NW 5.6 km/h 2.4 km/h 83% 0 mm 0.00 W/m2
06:29 18.6 °C 15.6 °C 1009 hPa Calm     83% 0 mm 0.00 W/m2
06:34 18.6 °C 15.6 °C 1009 hPa WSW 1.9 km/h 0.5 km/h 83% 0 mm 0.00 W/m2
06:39 18.6 °C 15.9 °C 1009 hPa West 1.9 km/h 0.2 km/h 84% 0 mm 0.00 W/m2
06:44 18.7 °C 15.7 °C 1009 hPa South 5.6 km/h 0.8 km/h 83% 0 mm 0.00 W/m2
06:49 18.7 °C 15.9 °C 1009 hPa Calm     84% 0 mm 0.00 W/m2
06:54 18.7 °C 16 °C 1009 hPa West 1.9 km/h 0.3 km/h 84% 0 mm 0.00 W/m2
06:59 18.8 °C 16.1 °C 1008.7 hPa NNW 4.8 km/h 0.5 km/h 84% 0 mm 0.00 W/m2
07:04 18.8 °C 16.1 °C 1008.7 hPa NNW 1.9 km/h 0.2 km/h 84% 0 mm 0.00 W/m2 OVC
07:09 18.9 °C 15.9 °C 1008.7 hPa NW 1.9 km/h 0.3 km/h 83% 0 mm 0.00 W/m2 OVC
07:14 18.9 °C 16 °C 1008.7 hPa NW 1.9 km/h 0.3 km/h 83% 0 mm 0.00 W/m2 OVC
07:19 18.9 °C 16 °C 1008.7 hPa NW 3.7 km/h 1 km/h 83% 0 mm 0.00 W/m2 OVC
07:24 18.9 °C 16 °C 1008.7 hPa West 1.9 km/h   83% 0 mm 0.00 W/m2 OVC
07:29 18.9 °C 15.9 °C 1008.7 hPa SE 1.9 km/h 0.3 km/h 83% 0 mm 0.00 W/m2 OVC
07:34 18.9 °C 16 °C 1008.7 hPa South 1.9 km/h 0.2 km/h 83% 0 mm 0.00 W/m2 OVC
07:39 18.9 °C 16.2 °C 1008.7 hPa Calm     84% 0 mm 0.00 W/m2 OVC
07:44 18.9 °C 16.2 °C 1008.4 hPa West 1.9 km/h 0.3 km/h 84% 0 mm 0.00 W/m2 OVC
07:49 18.9 °C 16.2 °C 1008.4 hPa West 3.7 km/h 0.6 km/h 84% 0 mm 0.00 W/m2 OVC
07:54 18.8 °C 16.1 °C 1008.4 hPa WNW 1.9 km/h 0.2 km/h 84% 0 mm 0.00 W/m2 OVC
07:59 18.8 °C 16.1 °C 1008.4 hPa North 1.9 km/h 0.2 km/h 84% 3.05 mm 0.00 W/m2 RA
08:04 18.8 °C 16.1 °C 1008.4 hPa SW 1.9 km/h   84% 3.05 mm 0.00 W/m2 RA
08:09 18.8 °C 16.2 °C 1008 hPa Calm     85% 3.05 mm 5.00 W/m2 OVC
08:14 18.7 °C 16.2 °C 1008 hPa WSW 1.9 km/h 0.5 km/h 85% 3.05 mm 0.00 W/m2 OVC
08:19 18.7 °C 16.1 °C 1008 hPa NE 1.9 km/h 0.8 km/h 85% 3.05 mm 0.00 W/m2 OVC
High Park Village Arhives